createdAt,value
2022-08-14T00:04:32.421Z,960.09
2022-08-14T00:09:06.423Z,960.04
2022-08-14T00:14:08.502Z,959.92
2022-08-14T00:19:18.959Z,959.84
2022-08-14T00:24:11.861Z,959.84
2022-08-14T00:29:13.460Z,959.86
2022-08-14T00:34:35.773Z,959.84
2022-08-14T00:39:17.856Z,959.77
2022-08-14T00:44:21.246Z,959.76
2022-08-14T00:49:21.100Z,959.73
2022-08-14T00:54:22.373Z,959.75
2022-08-14T00:59:23.608Z,959.72
2022-08-14T01:04:37.486Z,959.69
2022-08-14T01:09:26.763Z,959.62
2022-08-14T01:14:28.744Z,959.58
2022-08-14T01:19:30.661Z,959.52
2022-08-14T01:24:34.320Z,959.53
2022-08-14T01:29:58.378Z,959.48
2022-08-14T01:35:16.703Z,959.38
2022-08-14T01:39:37.832Z,959.36
2022-08-14T01:44:39.018Z,959.33
2022-08-14T01:49:40.526Z,959.2
2022-08-14T01:54:41.145Z,959.14
2022-08-14T01:59:43.812Z,958.99
2022-08-14T02:04:56.372Z,959.01
2022-08-14T02:09:55.771Z,958.94
2022-08-14T02:14:50.887Z,958.79
2022-08-14T02:19:48.484Z,958.74
2022-08-14T02:24:50.109Z,958.8
2022-08-14T02:29:56.554Z,958.79
2022-08-14T02:34:53.914Z,958.8
2022-08-14T02:39:55.383Z,958.68
2022-08-14T02:44:57.033Z,958.66
2022-08-14T02:49:58.910Z,958.63
2022-08-14T02:55:00.620Z,958.52
2022-08-14T03:00:02.039Z,958.53
2022-08-14T03:05:03.352Z,958.51
2022-08-14T03:10:24.894Z,958.54
2022-08-14T03:15:06.779Z,958.49
2022-08-14T03:20:11.171Z,958.5
2022-08-14T03:25:09.965Z,958.48
2022-08-14T03:30:14.422Z,958.43
2022-08-14T03:35:12.791Z,958.32
2022-08-14T03:40:17.728Z,958.25
2022-08-14T03:45:20.553Z,958.16
2022-08-14T03:50:18.055Z,958.18
2022-08-14T03:55:19.697Z,958.16
2022-08-14T04:00:40.220Z,958.22
2022-08-14T04:05:23.509Z,958.24
2022-08-14T04:10:26.216Z,958.14
2022-08-14T04:15:26.805Z,958.12
2022-08-14T04:20:28.329Z,958.1
2022-08-14T04:25:30.205Z,958.04
2022-08-14T04:30:32.643Z,958
2022-08-14T04:35:55.204Z,957.95
2022-08-14T04:40:35.451Z,957.95
2022-08-14T04:45:36.642Z,957.89
2022-08-14T04:50:44.225Z,957.79
2022-08-14T04:55:39.485Z,957.77
2022-08-14T05:00:41.028Z,957.79
2022-08-14T05:05:42.215Z,957.79
2022-08-14T05:10:44.274Z,957.85
2022-08-14T05:15:45.369Z,957.73
2022-08-14T05:21:04.684Z,957.74
2022-08-14T05:25:48.772Z,957.74
2022-08-14T05:30:50.479Z,957.64
2022-08-14T05:35:51.772Z,957.71
2022-08-14T05:40:53.739Z,957.81
2022-08-14T05:45:55.885Z,957.76
2022-08-14T05:50:57.115Z,957.78
2022-08-14T05:55:58.600Z,957.84
2022-08-14T06:01:00.227Z,957.84
2022-08-14T06:06:02.304Z,957.83
2022-08-14T06:11:04.217Z,957.86
2022-08-14T06:16:05.996Z,957.89
2022-08-14T06:21:12.926Z,957.81
2022-08-14T06:26:08.561Z,957.8
2022-08-14T06:31:09.846Z,957.78
2022-08-14T06:36:11.407Z,957.83
2022-08-14T06:41:12.998Z,957.96
2022-08-14T06:46:17.451Z,957.84
2022-08-14T06:51:16.534Z,957.84
2022-08-14T06:56:18.608Z,957.86
2022-08-14T07:01:27.255Z,957.8
2022-08-14T07:06:34.397Z,957.76
2022-08-14T07:11:23.374Z,957.77
2022-08-14T07:16:27.293Z,957.69
2022-08-14T07:21:26.057Z,957.62
2022-08-14T07:26:27.601Z,957.57
2022-08-14T07:31:29.132Z,957.48
2022-08-14T07:36:31.282Z,957.35
2022-08-14T07:41:34.262Z,957.31
2022-08-14T07:46:34.287Z,957.23
2022-08-14T07:51:36.936Z,957.17
2022-08-14T07:56:44.629Z,957.14
2022-08-14T08:01:38.834Z,957.11
2022-08-14T08:06:40.136Z,957.08
2022-08-14T08:11:42.098Z,957.05
2022-08-14T08:16:44.042Z,957.07
2022-08-14T08:21:45.991Z,957.14
2022-08-14T08:26:47.281Z,957
2022-08-14T08:31:49.020Z,957.03
2022-08-14T08:36:49.954Z,957.08
2022-08-14T08:41:53.710Z,957.15
2022-08-14T08:46:53.426Z,957.04
2022-08-14T08:51:55.521Z,957.03
2022-08-14T08:56:56.956Z,956.95
2022-08-14T09:01:58.284Z,956.93
2022-08-14T09:07:09.640Z,956.93
2022-08-14T09:12:01.697Z,956.93
2022-08-14T09:17:03.502Z,956.94
2022-08-14T09:22:04.713Z,956.9
2022-08-14T09:27:06.729Z,956.71
2022-08-14T09:32:10.266Z,956.77
2022-08-14T09:37:10.060Z,956.76
2022-08-14T09:42:17.282Z,956.66
2022-08-14T09:47:14.601Z,956.7
2022-08-14T09:52:23.872Z,956.68
2022-08-14T09:57:16.931Z,956.68
2022-08-14T10:02:18.299Z,956.63
2022-08-14T10:07:20.355Z,956.56
2022-08-14T10:12:28.930Z,956.48
2022-08-14T10:17:23.362Z,956.47
2022-08-14T10:23:11.353Z,956.29
2022-08-14T10:27:27.254Z,956.4
2022-08-14T10:32:36.781Z,956.4
2022-08-14T10:37:30.826Z,956.26
2022-08-14T10:42:32.771Z,956.23
2022-08-14T10:47:37.559Z,956.25
2022-08-14T10:52:35.745Z,956.11
2022-08-14T10:57:36.916Z,956.14
2022-08-14T11:02:45.220Z,956.07
2022-08-14T11:07:39.946Z,956.02
2022-08-14T11:12:42.102Z,955.85
2022-08-14T11:17:45.892Z,955.85
2022-08-14T11:22:53.071Z,955.77
2022-08-14T11:27:48.941Z,955.64
2022-08-14T11:32:48.621Z,955.56
2022-08-14T11:37:50.641Z,955.47
2022-08-14T11:42:55.919Z,955.39
2022-08-14T11:48:11.268Z,955.37
2022-08-14T11:52:55.479Z,955.36
2022-08-14T11:57:59.559Z,955.25
2022-08-14T12:03:01.964Z,955.22
2022-08-14T12:08:04.100Z,955.21
2022-08-14T12:13:01.991Z,955.13
2022-08-14T12:18:03.312Z,955.12
2022-08-14T12:23:05.297Z,955.04
2022-08-14T12:28:06.883Z,955.01
2022-08-14T12:33:08.959Z,955.01
2022-08-14T12:38:14.877Z,954.95
2022-08-14T12:43:14.149Z,954.9
2022-08-14T12:48:20.948Z,954.8
2022-08-14T12:53:22.045Z,954.79
2022-08-14T12:58:29.088Z,954.77
2022-08-14T13:03:25.306Z,954.69
2022-08-14T13:08:33.194Z,954.64
2022-08-14T13:48:41.023Z,954.09
2022-08-14T13:58:46.988Z,953.94
2022-08-14T14:03:46.452Z,953.81
2022-08-14T14:08:48.566Z,953.78
2022-08-14T14:13:50.435Z,953.84
2022-08-14T14:18:52.235Z,953.77
2022-08-14T14:23:53.816Z,953.81
2022-08-14T14:33:58.126Z,953.74
2022-08-14T14:38:59.319Z,953.72
2022-08-14T14:44:00.754Z,953.67
2022-08-14T14:49:02.032Z,953.56
2022-08-14T14:54:03.750Z,953.56
2022-08-14T14:59:05.829Z,953.43
2022-08-14T15:04:08.373Z,953.43
2022-08-14T15:09:09.426Z,953.45
2022-08-14T15:14:54.505Z,953.34
2022-08-14T15:19:12.339Z,953.25
2022-08-14T15:24:17.656Z,953.27
2022-08-14T15:29:15.824Z,953.28
2022-08-14T15:34:42.965Z,953.23
2022-08-14T15:39:19.111Z,953.28
2022-08-14T15:44:25.623Z,953.17
2022-08-14T15:49:22.208Z,953.13
2022-08-14T15:54:24.170Z,953.15
2022-08-14T15:59:25.775Z,953.12
2022-08-14T16:04:27.595Z,953.09
2022-08-14T16:09:28.884Z,953
2022-08-14T16:14:30.680Z,952.93
2022-08-14T16:19:32.842Z,952.89
2022-08-14T16:24:34.428Z,952.88
2022-08-14T16:29:36.390Z,952.86
2022-08-14T16:34:43.905Z,952.81
2022-08-14T16:39:39.865Z,952.83
2022-08-14T16:44:41.691Z,952.82
2022-08-14T16:50:03.669Z,952.79
2022-08-14T16:54:45.313Z,952.78
2022-08-14T16:59:52.992Z,952.73
2022-08-14T17:04:49.004Z,952.73
2022-08-14T17:09:49.510Z,952.73
2022-08-14T17:14:51.564Z,952.76
2022-08-14T17:19:54.824Z,952.75
2022-08-14T17:24:58.554Z,952.77
2022-08-14T17:29:57.670Z,952.8
2022-08-14T17:35:01.443Z,952.8
2022-08-14T17:39:59.511Z,952.81
2022-08-14T17:45:01.229Z,952.77
2022-08-14T17:50:03.162Z,952.8
2022-08-14T17:55:04.430Z,952.83
2022-08-14T18:00:06.098Z,952.79
2022-08-14T18:05:08.358Z,952.8
2022-08-14T18:10:52.796Z,952.81
2022-08-14T18:15:14.275Z,952.85
2022-08-14T18:20:16.176Z,952.83
2022-08-14T18:25:18.026Z,952.86
2022-08-14T18:30:31.338Z,952.91
2022-08-14T18:35:18.523Z,952.96
2022-08-14T18:40:20.292Z,952.98
2022-08-14T18:45:28.634Z,953.01
2022-08-14T18:50:26.646Z,953.04
2022-08-14T18:55:25.251Z,953.14
2022-08-14T19:00:32.383Z,953.15
2022-08-14T19:05:28.350Z,953.16
2022-08-14T19:10:31.727Z,953.22
2022-08-14T19:15:31.792Z,953.27
2022-08-14T19:20:37.814Z,953.25
2022-08-14T19:25:35.967Z,953.29
2022-08-14T19:30:37.912Z,953.24
2022-08-14T19:35:41.714Z,953.31
2022-08-14T19:40:41.063Z,953.31
2022-08-14T19:45:42.334Z,953.32
2022-08-14T19:50:44.249Z,953.33
2022-08-14T19:55:45.965Z,953.39
2022-08-14T20:00:51.945Z,953.45
2022-08-14T20:05:49.983Z,953.42
2022-08-14T20:11:07.668Z,953.44
2022-08-14T20:15:53.741Z,953.41
2022-08-14T20:20:55.823Z,953.39
2022-08-14T20:25:58.454Z,953.42
2022-08-14T20:30:58.687Z,953.48
2022-08-14T20:36:00.306Z,953.51
2022-08-14T20:41:02.039Z,953.47
2022-08-14T20:46:03.814Z,953.46
2022-08-14T20:51:05.471Z,953.48
2022-08-14T20:56:28.279Z,953.5
2022-08-14T21:01:09.814Z,953.51
2022-08-14T21:06:16.126Z,953.58
2022-08-14T21:11:12.437Z,953.61
2022-08-14T21:16:26.035Z,953.6
2022-08-14T21:21:15.630Z,953.59
2022-08-14T21:26:17.390Z,953.65
2022-08-14T21:31:19.034Z,953.73
2022-08-14T21:36:21.825Z,953.71
2022-08-14T21:41:42.066Z,953.69
2022-08-14T21:46:23.225Z,953.68
2022-08-14T21:51:53.070Z,953.66
2022-08-14T21:56:31.474Z,953.67
2022-08-14T22:16:40.345Z,953.71
2022-08-14T22:21:33.760Z,953.74
2022-08-14T22:26:35.344Z,953.71
2022-08-14T22:31:39.625Z,953.75
2022-08-14T22:36:41.953Z,953.78
2022-08-14T22:41:42.966Z,953.81
2022-08-14T22:46:43.734Z,953.75
2022-08-14T22:51:48.216Z,953.73
2022-08-14T22:56:46.026Z,953.67
2022-08-14T23:01:55.987Z,953.59
2022-08-14T23:07:01.780Z,953.57
2022-08-14T23:11:50.725Z,953.54
2022-08-14T23:16:52.120Z,953.55
2022-08-14T23:21:53.393Z,953.56
2022-08-14T23:26:55.432Z,953.51
2022-08-14T23:31:57.485Z,953.56
2022-08-14T23:36:59.517Z,953.59
2022-08-14T23:42:02.273Z,953.53
2022-08-14T23:47:03.351Z,953.49
2022-08-14T23:52:51.934Z,953.55
2022-08-14T23:57:06.863Z,953.52
